createdAt,value
2018-11-14T00:16:10.947Z,8.40
2018-11-14T00:18:39.300Z,8.40
2018-11-14T00:21:07.997Z,8.40
2018-11-14T00:23:36.630Z,8.40
2018-11-14T00:26:05.477Z,8.40
2018-11-14T00:28:34.018Z,8.40
2018-11-14T00:31:02.451Z,8.40
2018-11-14T00:33:30.887Z,8.40
2018-11-14T00:35:59.357Z,8.40
2018-11-14T00:38:27.709Z,8.40
2018-11-14T00:40:56.102Z,8.40
2018-11-14T00:43:24.484Z,8.40
2018-11-14T00:45:52.829Z,8.40
2018-11-14T00:48:21.210Z,8.50
2018-11-14T00:50:49.613Z,8.50
2018-11-14T00:53:18.039Z,8.50
2018-11-14T00:55:46.381Z,8.50
2018-11-14T00:58:14.754Z,8.50
2018-11-14T01:00:43.168Z,8.60
2018-11-14T01:03:11.545Z,8.60
2018-11-14T01:05:39.975Z,8.60
2018-11-14T01:08:08.642Z,8.60
2018-11-14T01:10:37.043Z,8.60
2018-11-14T01:13:05.700Z,8.60
2018-11-14T01:15:34.287Z,8.50
2018-11-14T01:18:02.645Z,8.50
2018-11-14T01:20:35.330Z,8.50
2018-11-14T01:23:03.713Z,8.50
2018-11-14T01:25:32.300Z,8.50
2018-11-14T01:28:00.649Z,8.50
2018-11-14T01:30:28.995Z,8.50
2018-11-14T01:32:57.397Z,8.50
2018-11-14T01:35:25.750Z,8.50
2018-11-14T01:37:54.361Z,8.50
2018-11-14T01:40:25.826Z,8.50
2018-11-14T01:42:58.010Z,8.50
2018-11-14T01:45:26.434Z,8.50
2018-11-14T01:47:54.796Z,8.50
2018-11-14T01:50:23.123Z,8.50
2018-11-14T01:52:51.406Z,8.50
2018-11-14T01:55:20.602Z,8.50
2018-11-14T01:57:48.924Z,8.50
2018-11-14T02:00:24.822Z,8.50
2018-11-14T02:02:53.200Z,8.60
2018-11-14T02:14:02.493Z,8.70
2018-11-14T02:16:30.867Z,8.70
2018-11-14T02:18:59.236Z,8.80
2018-11-14T02:21:27.552Z,8.80
2018-11-14T02:23:55.883Z,8.80
2018-11-14T02:26:24.224Z,8.90
2018-11-14T02:28:53.005Z,8.90
2018-11-14T02:31:21.599Z,8.90
2018-11-14T02:33:49.933Z,8.90
2018-11-14T02:36:18.496Z,8.90
2018-11-14T02:38:46.856Z,9.00
2018-11-14T02:41:15.190Z,9.00
2018-11-14T02:43:43.523Z,9.00
2018-11-14T02:46:11.976Z,9.10
2018-11-14T02:48:40.335Z,9.10
2018-11-14T02:51:19.825Z,9.10
2018-11-14T02:53:48.237Z,9.10
2018-11-14T02:56:16.590Z,9.10
2018-11-14T02:58:44.931Z,9.10
2018-11-14T03:01:13.248Z,9.10
2018-11-14T03:03:41.611Z,9.10
2018-11-14T03:06:09.986Z,9.10
2018-11-14T03:08:38.725Z,9.00
2018-11-14T03:11:07.906Z,9.00
2018-11-14T03:13:36.276Z,9.00
2018-11-14T03:16:04.871Z,9.00
2018-11-14T03:18:33.817Z,8.90
2018-11-14T03:21:02.492Z,8.90
2018-11-14T03:23:30.852Z,8.80
2018-11-14T03:25:59.557Z,8.80
2018-11-14T03:28:27.867Z,8.80
2018-11-14T03:31:01.938Z,8.70
2018-11-14T03:33:30.280Z,8.70
2018-11-14T03:36:04.374Z,8.60
2018-11-14T03:38:32.766Z,8.50
2018-11-14T03:41:01.132Z,8.50
2018-11-14T03:43:29.484Z,8.40
2018-11-14T03:45:57.793Z,8.40
2018-11-14T03:48:26.076Z,8.30
2018-11-14T03:50:54.422Z,8.30
2018-11-14T03:53:22.747Z,8.20
2018-11-14T03:55:51.092Z,8.20
2018-11-14T03:58:19.482Z,8.10
2018-11-14T04:00:47.914Z,8.10
2018-11-14T04:03:16.244Z,8.10
2018-11-14T04:05:44.591Z,8.10
2018-11-14T04:08:13.098Z,8.00
2018-11-14T04:10:44.807Z,8.00
2018-11-14T04:13:13.144Z,8.00
2018-11-14T04:15:41.430Z,7.90
2018-11-14T04:18:09.754Z,7.90
2018-11-14T04:20:38.092Z,7.90
2018-11-14T04:23:06.465Z,7.90
2018-11-14T04:25:34.798Z,7.80
2018-11-14T04:28:03.153Z,7.80
2018-11-14T04:30:31.572Z,7.80
2018-11-14T04:32:59.978Z,7.80
2018-11-14T04:35:28.322Z,7.80
2018-11-14T04:37:56.661Z,7.70
2018-11-14T04:40:25.264Z,7.70
2018-11-14T04:42:53.681Z,7.70
2018-11-14T04:45:23.262Z,7.70
2018-11-14T04:47:51.608Z,7.70
2018-11-14T04:50:21.981Z,7.70
2018-11-14T04:52:50.782Z,7.60
2018-11-14T04:55:20.163Z,7.60
2018-11-14T04:57:49.084Z,7.60
2018-11-14T05:00:18.482Z,7.60
2018-11-14T05:02:47.495Z,7.60
2018-11-14T05:05:16.986Z,7.60
2018-11-14T05:07:45.318Z,7.60
2018-11-14T05:10:15.950Z,7.60
2018-11-14T05:12:44.496Z,7.50
2018-11-14T05:15:14.493Z,7.50
2018-11-14T05:17:43.303Z,7.50
2018-11-14T05:20:13.261Z,7.50
2018-11-14T05:22:42.244Z,7.40
2018-11-14T05:25:10.841Z,7.40
2018-11-14T05:27:39.180Z,7.40
2018-11-14T05:30:12.821Z,7.40
2018-11-14T05:32:41.491Z,7.40
2018-11-14T05:35:10.694Z,7.40
2018-11-14T05:37:39.511Z,7.40
2018-11-14T05:40:09.863Z,7.30
2018-11-14T05:42:38.919Z,7.30
2018-11-14T05:45:09.381Z,7.30
2018-11-14T05:47:38.063Z,7.30
2018-11-14T05:50:09.088Z,7.30
2018-11-14T05:52:37.514Z,7.20
2018-11-14T05:55:06.530Z,7.20
2018-11-14T05:57:34.945Z,7.20
2018-11-14T06:00:03.612Z,7.20
2018-11-14T06:02:31.916Z,7.20
2018-11-14T06:05:00.279Z,7.20
2018-11-14T06:07:28.710Z,7.20
2018-11-14T06:09:57.168Z,7.10
2018-11-14T06:12:25.501Z,7.10
2018-11-14T06:14:54.220Z,7.10
2018-11-14T06:17:22.586Z,7.10
2018-11-14T06:19:51.488Z,7.10
2018-11-14T06:22:19.860Z,7.10
2018-11-14T06:24:48.211Z,7.10
2018-11-14T06:27:16.726Z,7.00
2018-11-14T06:29:45.328Z,7.00
2018-11-14T06:32:13.953Z,7.00
2018-11-14T06:34:42.368Z,7.00
2018-11-14T06:37:10.885Z,6.90
2018-11-14T06:39:39.402Z,6.90
2018-11-14T06:42:07.888Z,6.90
2018-11-14T06:44:36.249Z,6.90
2018-11-14T06:47:04.977Z,6.90
2018-11-14T06:49:35.075Z,6.90
2018-11-14T06:52:03.419Z,6.80
2018-11-14T06:54:31.821Z,6.80
2018-11-14T06:57:00.340Z,6.80
2018-11-14T06:59:28.755Z,6.80
2018-11-14T07:01:57.224Z,6.80
2018-11-14T07:04:25.643Z,6.70
2018-11-14T07:06:54.044Z,6.80
2018-11-14T07:09:22.559Z,6.70
2018-11-14T07:11:50.997Z,6.80
2018-11-14T07:14:19.442Z,6.70
2018-11-14T07:16:47.773Z,6.70
2018-11-14T07:19:16.128Z,6.70
2018-11-14T07:21:44.839Z,6.70
2018-11-14T07:24:13.254Z,6.80
2018-11-14T07:26:41.634Z,6.80
2018-11-14T07:29:10.205Z,6.80
2018-11-14T07:31:38.536Z,6.80
2018-11-14T07:34:06.997Z,6.80
2018-11-14T07:36:35.406Z,6.80
2018-11-14T07:39:05.512Z,6.80
2018-11-14T07:41:35.237Z,6.80
2018-11-14T07:44:03.561Z,6.90
2018-11-14T07:46:32.828Z,6.90
2018-11-14T07:49:01.282Z,6.90
2018-11-14T07:51:30.443Z,6.90
2018-11-14T07:53:59.141Z,6.90
2018-11-14T07:56:27.694Z,7.00
2018-11-14T07:58:56.445Z,7.00
2018-11-14T08:01:24.826Z,7.00
2018-11-14T08:03:53.206Z,7.00
2018-11-14T08:06:22.049Z,7.00
2018-11-14T08:08:50.522Z,7.10
2018-11-14T08:11:19.286Z,7.10
2018-11-14T08:13:49.458Z,7.20
2018-11-14T08:16:18.743Z,7.20
2018-11-14T08:18:47.466Z,7.30
2018-11-14T08:21:15.963Z,7.30
2018-11-14T08:23:44.349Z,7.30
2018-11-14T08:26:13.413Z,7.30
2018-11-14T08:28:41.837Z,7.40
2018-11-14T08:31:10.233Z,7.50
2018-11-14T08:33:38.954Z,7.50
2018-11-14T08:36:07.986Z,7.60
2018-11-14T08:38:36.469Z,7.60
2018-11-14T08:41:05.361Z,7.60
2018-11-14T08:43:33.829Z,7.70
2018-11-14T08:46:02.653Z,7.70
2018-11-14T08:48:31.381Z,7.70
2018-11-14T08:51:01.051Z,7.80
2018-11-14T08:53:29.476Z,7.80
2018-11-14T08:55:58.632Z,7.90
2018-11-14T08:58:27.240Z,7.90
2018-11-14T09:00:55.562Z,8.00
2018-11-14T09:03:24.001Z,8.00
2018-11-14T09:05:52.832Z,8.10
2018-11-14T09:08:21.767Z,8.10
2018-11-14T09:10:50.115Z,8.20
2018-11-14T09:13:18.548Z,8.20
2018-11-14T09:15:47.009Z,8.30
2018-11-14T09:18:15.573Z,8.30
2018-11-14T09:20:44.516Z,8.40
2018-11-14T09:23:12.983Z,8.40
2018-11-14T09:25:41.371Z,8.50
2018-11-14T09:28:09.709Z,8.50
2018-11-14T09:30:38.061Z,8.60
2018-11-14T09:33:06.662Z,8.60
2018-11-14T09:35:35.189Z,8.70
2018-11-14T09:38:03.708Z,8.70
2018-11-14T09:40:32.047Z,8.80
2018-11-14T09:43:00.395Z,8.80
2018-11-14T09:45:30.009Z,8.90
2018-11-14T09:48:00.049Z,8.90
2018-11-14T09:50:30.742Z,9.00
2018-11-14T09:53:01.627Z,9.10
2018-11-14T09:55:30.273Z,9.10
2018-11-14T09:57:59.196Z,9.20
2018-11-14T10:00:30.732Z,9.30
2018-11-14T10:03:02.731Z,9.30
2018-11-14T10:05:31.423Z,9.40
2018-11-14T10:08:00.781Z,9.40
2018-11-14T10:10:29.251Z,9.50
2018-11-14T10:12:57.702Z,9.50
2018-11-14T10:15:26.693Z,9.50
2018-11-14T10:17:55.356Z,9.60
2018-11-14T10:20:24.639Z,9.70
2018-11-14T10:22:53.151Z,9.70
2018-11-14T10:25:21.671Z,9.70
2018-11-14T10:27:50.652Z,9.80
2018-11-14T10:30:20.443Z,9.90
2018-11-14T10:32:49.431Z,10.00
2018-11-14T10:35:17.839Z,10.00
2018-11-14T10:37:46.395Z,10.10
2018-11-14T10:40:17.646Z,10.10
2018-11-14T10:42:46.133Z,10.20
2018-11-14T10:45:15.710Z,10.30
2018-11-14T10:47:44.323Z,10.40
2018-11-14T10:50:15.952Z,10.40
2018-11-14T10:52:44.400Z,10.50
2018-11-14T10:55:13.837Z,10.60
2018-11-14T10:57:42.199Z,10.70
2018-11-14T11:00:16.904Z,10.70
2018-11-14T11:02:50.616Z,10.80
2018-11-14T11:05:24.615Z,10.90
2018-11-14T11:07:58.354Z,10.90
2018-11-14T11:10:32.001Z,11.00
2018-11-14T11:13:04.709Z,11.00
2018-11-14T11:15:38.955Z,11.10
2018-11-14T11:18:09.597Z,11.10
2018-11-14T11:20:38.504Z,11.20
2018-11-14T11:23:07.075Z,11.20
2018-11-14T11:25:35.461Z,11.30
2018-11-14T11:28:03.823Z,11.30
2018-11-14T11:30:32.349Z,11.40
2018-11-14T11:33:00.954Z,11.40
2018-11-14T11:35:29.317Z,11.40
2018-11-14T11:37:57.931Z,11.50
2018-11-14T11:40:26.659Z,11.50
2018-11-14T11:42:55.013Z,11.60
2018-11-14T11:45:23.906Z,11.60
2018-11-14T11:47:52.868Z,11.70
2018-11-14T11:50:21.842Z,11.70
2018-11-14T11:52:50.851Z,11.80
2018-11-14T11:55:19.486Z,11.80
2018-11-14T11:57:48.683Z,11.80
2018-11-14T12:00:17.823Z,11.90
2018-11-14T12:02:46.932Z,11.90
2018-11-14T12:05:15.849Z,12.00
2018-11-14T12:07:44.982Z,12.00
2018-11-14T12:10:14.604Z,12.00
2018-11-14T12:12:44.615Z,12.10
2018-11-14T12:15:14.361Z,12.10
2018-11-14T12:17:43.566Z,12.10
2018-11-14T12:20:14.085Z,12.10
2018-11-14T12:22:43.356Z,12.20
2018-11-14T12:25:14.725Z,12.20
2018-11-14T12:27:43.917Z,12.30
2018-11-14T12:30:16.325Z,12.30
2018-11-14T12:32:45.419Z,12.30
2018-11-14T12:35:15.845Z,12.40
2018-11-14T12:37:44.911Z,12.40
2018-11-14T12:40:14.604Z,12.40
2018-11-14T12:42:43.540Z,12.40
2018-11-14T12:45:15.229Z,12.40
2018-11-14T12:47:44.605Z,12.40
2018-11-14T12:50:14.421Z,12.40
2018-11-14T12:52:43.612Z,12.40
2018-11-14T12:55:15.212Z,12.40
2018-11-14T12:57:44.219Z,12.50
2018-11-14T13:00:14.442Z,12.50
2018-11-14T13:02:43.448Z,12.60
2018-11-14T13:05:13.637Z,12.60
2018-11-14T13:07:42.989Z,12.60
2018-11-14T13:10:13.302Z,12.60
2018-11-14T13:12:42.809Z,12.70
2018-11-14T13:15:12.813Z,12.80
2018-11-14T13:17:42.365Z,12.90
2018-11-14T13:20:13.444Z,12.90
2018-11-14T13:22:42.684Z,13.00
2018-11-14T13:25:12.303Z,13.10
2018-11-14T13:27:42.225Z,13.10
2018-11-14T13:30:13.525Z,13.10
2018-11-14T13:32:42.777Z,13.10
2018-11-14T13:35:13.566Z,13.10
2018-11-14T13:37:43.437Z,13.00
2018-11-14T13:40:12.717Z,13.00
2018-11-14T13:42:41.951Z,13.00
2018-11-14T13:45:13.104Z,13.00
2018-11-14T13:47:42.481Z,13.00
2018-11-14T13:50:13.636Z,13.00
2018-11-14T13:52:42.725Z,13.00
2018-11-14T13:55:13.056Z,13.00
2018-11-14T13:57:43.183Z,13.00
2018-11-14T14:00:13.328Z,13.00
2018-11-14T14:02:43.364Z,12.90
2018-11-14T14:05:14.027Z,12.90
2018-11-14T14:07:42.968Z,12.90
2018-11-14T14:10:13.629Z,12.80
2018-11-14T14:12:44.006Z,12.80
2018-11-14T14:15:16.013Z,12.80
2018-11-14T14:17:45.694Z,12.80
2018-11-14T14:20:15.158Z,12.70
2018-11-14T14:22:44.553Z,12.70
2018-11-14T14:25:15.983Z,12.70
2018-11-14T14:27:45.018Z,12.60
2018-11-14T14:30:19.445Z,12.50
2018-11-14T14:32:48.994Z,12.50
2018-11-14T14:35:20.777Z,12.40
2018-11-14T14:37:49.762Z,12.40
2018-11-14T14:40:20.506Z,12.40
2018-11-14T14:42:49.546Z,12.30
2018-11-14T14:45:20.752Z,12.20
2018-11-14T14:47:49.716Z,12.20
2018-11-14T14:50:19.446Z,12.20
2018-11-14T14:52:48.514Z,12.20
2018-11-14T14:55:20.525Z,12.10
2018-11-14T14:57:49.641Z,12.10
2018-11-14T15:00:20.443Z,12.10
2018-11-14T15:02:49.473Z,12.00
2018-11-14T15:05:17.989Z,12.00
2018-11-14T15:07:47.049Z,12.00
2018-11-14T15:10:16.797Z,11.90
2018-11-14T15:12:45.851Z,11.80
2018-11-14T15:15:15.693Z,11.80
2018-11-14T15:17:44.569Z,11.80
2018-11-14T15:20:16.299Z,11.70
2018-11-14T15:22:44.867Z,11.60
2018-11-14T15:25:15.046Z,11.50
2018-11-14T15:27:44.018Z,11.50
2018-11-14T15:30:17.444Z,11.40
2018-11-14T15:32:45.859Z,11.40
2018-11-14T15:35:18.027Z,11.30
2018-11-14T15:37:46.638Z,11.20
2018-11-14T15:40:16.291Z,11.10
2018-11-14T15:42:44.826Z,11.10
2018-11-14T15:45:19.030Z,11.00
2018-11-14T15:47:47.413Z,11.00
2018-11-14T15:50:17.174Z,10.90
2018-11-14T15:52:46.598Z,10.90
2018-11-14T15:55:18.208Z,10.80
2018-11-14T15:57:46.735Z,10.80
2018-11-14T16:00:18.313Z,10.70
2018-11-14T16:02:46.661Z,10.70
2018-11-14T16:05:18.347Z,10.60
2018-11-14T16:07:48.154Z,10.60
2018-11-14T16:10:17.723Z,10.50
2018-11-14T16:12:46.102Z,10.40
2018-11-14T16:15:19.241Z,10.40
2018-11-14T16:17:47.924Z,10.30
2018-11-14T16:20:17.955Z,10.30
2018-11-14T16:22:46.454Z,10.20
2018-11-14T16:25:16.140Z,10.10
2018-11-14T16:27:45.347Z,10.10
2018-11-14T16:30:20.751Z,10.00
2018-11-14T16:32:50.351Z,10.00
2018-11-14T16:35:19.567Z,10.00
2018-11-14T16:37:48.241Z,9.90
2018-11-14T16:40:18.323Z,9.80
2018-11-14T16:42:46.906Z,9.80
2018-11-14T16:45:15.701Z,9.70
2018-11-14T16:47:44.212Z,9.70
2018-11-14T16:50:13.900Z,9.60
2018-11-14T16:52:42.263Z,9.60
2018-11-14T16:55:12.011Z,9.50
2018-11-14T16:57:41.376Z,9.50
2018-11-14T17:00:15.682Z,9.50
2018-11-14T17:02:44.058Z,9.40
2018-11-14T17:05:12.885Z,9.40
2018-11-14T17:07:41.210Z,9.30
2018-11-14T17:10:12.377Z,9.30
2018-11-14T17:12:41.581Z,9.30
2018-11-14T17:15:11.706Z,9.20
2018-11-14T17:17:40.115Z,9.20
2018-11-14T17:20:09.017Z,9.20
2018-11-14T17:22:37.382Z,9.20
2018-11-14T17:25:06.059Z,9.10
2018-11-14T17:27:34.467Z,9.10
2018-11-14T17:30:02.821Z,9.10
2018-11-14T17:32:31.245Z,9.00
2018-11-14T17:34:59.595Z,9.00
2018-11-14T17:37:27.945Z,8.90
2018-11-14T17:39:56.276Z,8.90
2018-11-14T17:42:24.698Z,8.80
2018-11-14T17:44:54.394Z,8.80
2018-11-14T17:49:52.338Z,8.70
2018-11-14T17:52:20.732Z,8.70
2018-11-14T17:54:49.085Z,8.70
2018-11-14T17:57:18.831Z,8.60
2018-11-14T17:59:47.217Z,8.60
2018-11-14T18:02:15.571Z,8.60
2018-11-14T18:04:43.939Z,8.60
2018-11-14T18:07:12.508Z,8.50
2018-11-14T18:09:41.340Z,8.50
2018-11-14T18:12:09.759Z,8.50
2018-11-14T18:14:38.416Z,8.50
2018-11-14T18:17:07.034Z,8.50
2018-11-14T18:19:35.458Z,8.40
2018-11-14T18:22:03.871Z,8.40
2018-11-14T18:24:32.484Z,8.40
2018-11-14T18:27:00.822Z,8.40
2018-11-14T18:29:30.807Z,8.40
2018-11-14T18:31:59.266Z,8.30
2018-11-14T18:34:27.654Z,8.30
2018-11-14T18:36:56.544Z,8.30
2018-11-14T18:39:25.354Z,8.30
2018-11-14T18:41:53.725Z,8.20
2018-11-14T18:44:31.436Z,8.20
2018-11-14T18:46:59.994Z,8.20
2018-11-14T18:49:28.400Z,8.20
2018-11-14T18:51:56.971Z,8.20
2018-11-14T18:54:25.958Z,8.10
2018-11-14T18:56:54.511Z,8.10
2018-11-14T18:59:23.063Z,8.10
2018-11-14T19:01:52.540Z,8.10
2018-11-14T19:04:21.066Z,8.00
2018-11-14T19:06:49.490Z,8.00
2018-11-14T19:09:21.704Z,8.00
2018-11-14T19:11:59.383Z,7.90
2018-11-14T19:14:27.736Z,7.90
2018-11-14T19:16:57.005Z,7.90
2018-11-14T19:19:25.389Z,7.80
2018-11-14T19:21:54.035Z,7.80
2018-11-14T19:24:22.579Z,7.80
2018-11-14T19:26:52.451Z,7.70
2018-11-14T19:29:21.293Z,7.70
2018-11-14T19:31:49.644Z,7.70
2018-11-14T19:34:18.267Z,7.70
2018-11-14T19:36:46.716Z,7.70
2018-11-14T19:39:15.193Z,7.60
2018-11-14T19:41:43.612Z,7.60
2018-11-14T19:44:12.019Z,7.60
2018-11-14T19:46:40.407Z,7.60
2018-11-14T19:49:10.749Z,7.60
2018-11-14T19:51:40.248Z,7.60
2018-11-14T19:54:08.670Z,7.50
2018-11-14T19:56:37.116Z,7.50
2018-11-14T19:59:05.529Z,7.40
2018-11-14T20:01:34.349Z,7.40
2018-11-14T20:04:03.231Z,7.40
2018-11-14T20:06:31.758Z,7.40
2018-11-14T20:09:00.127Z,7.30
2018-11-14T20:11:28.648Z,7.30
2018-11-14T20:13:57.003Z,7.30
2018-11-14T20:16:25.409Z,7.30
2018-11-14T20:18:53.944Z,7.20
2018-11-14T20:21:22.320Z,7.20
2018-11-14T20:23:50.862Z,7.20
2018-11-14T20:26:20.087Z,7.10
2018-11-14T20:28:48.665Z,7.10
2018-11-14T20:31:17.187Z,7.10
2018-11-14T20:33:45.711Z,7.00
2018-11-14T20:36:14.071Z,7.00
2018-11-14T20:38:42.584Z,7.00
2018-11-14T20:41:11.147Z,6.90
2018-11-14T20:43:39.535Z,6.90
2018-11-14T20:46:07.963Z,6.90
2018-11-14T20:48:36.343Z,6.90
2018-11-14T20:51:05.094Z,6.90
2018-11-14T20:53:33.780Z,6.90
2018-11-14T20:56:02.204Z,6.90
2018-11-14T20:58:30.713Z,6.80
2018-11-14T21:00:59.365Z,6.80
2018-11-14T21:03:27.732Z,6.80
2018-11-14T21:05:56.325Z,6.80
2018-11-14T21:08:24.918Z,6.70
2018-11-14T21:10:53.627Z,6.70
2018-11-14T21:13:22.165Z,6.70
2018-11-14T21:15:50.595Z,6.70
2018-11-14T21:18:19.052Z,6.70
2018-11-14T21:20:51.041Z,6.70
2018-11-14T21:23:19.589Z,6.70
2018-11-14T21:25:48.255Z,6.70
2018-11-14T21:28:16.776Z,6.70
2018-11-14T21:30:45.122Z,6.60
2018-11-14T21:33:13.617Z,6.60
2018-11-14T21:35:45.513Z,6.60
2018-11-14T21:38:13.985Z,6.60
2018-11-14T21:40:42.470Z,6.60
2018-11-14T21:43:10.915Z,6.50
2018-11-14T21:45:39.298Z,6.50
2018-11-14T21:48:13.541Z,6.50
2018-11-14T21:50:42.167Z,6.50
2018-11-14T21:53:10.865Z,6.50
2018-11-14T21:55:39.478Z,6.50
2018-11-14T21:58:11.420Z,6.50
2018-11-14T22:00:40.727Z,6.50
2018-11-14T22:03:09.873Z,6.50
2018-11-14T22:05:38.510Z,6.40
2018-11-14T22:08:07.677Z,6.50
2018-11-14T22:10:36.050Z,6.50
2018-11-14T22:13:04.500Z,6.50
2018-11-14T22:15:33.004Z,6.50
2018-11-14T22:18:01.422Z,6.50
2018-11-14T22:20:30.187Z,6.50
2018-11-14T22:22:58.575Z,6.50
2018-11-14T22:25:28.105Z,6.50
2018-11-14T22:27:56.651Z,6.50
2018-11-14T22:30:30.048Z,6.40
2018-11-14T22:32:58.867Z,6.40
2018-11-14T22:35:28.459Z,6.40
2018-11-14T22:37:57.035Z,6.40
2018-11-14T22:40:26.826Z,6.40
2018-11-14T22:42:55.573Z,6.40
2018-11-14T22:45:26.063Z,6.40
2018-11-14T22:47:54.533Z,6.40
2018-11-14T22:50:23.867Z,6.40
2018-11-14T22:52:52.802Z,6.40
2018-11-14T22:55:22.466Z,6.40
2018-11-14T22:57:51.348Z,6.40
2018-11-14T23:00:29.403Z,6.40
2018-11-14T23:02:59.029Z,6.40
2018-11-14T23:05:27.495Z,6.40
2018-11-14T23:07:56.611Z,6.40
2018-11-14T23:10:25.800Z,6.30
2018-11-14T23:12:54.204Z,6.40
2018-11-14T23:15:23.212Z,6.30
2018-11-14T23:17:52.000Z,6.30
2018-11-14T23:20:20.521Z,6.30
2018-11-14T23:22:49.778Z,6.30
2018-11-14T23:25:18.762Z,6.30
2018-11-14T23:27:48.244Z,6.30
2018-11-14T23:30:17.413Z,6.30
2018-11-14T23:32:46.956Z,6.20
2018-11-14T23:35:16.062Z,6.20
2018-11-14T23:37:45.900Z,6.20
2018-11-14T23:40:14.296Z,6.20
2018-11-14T23:42:42.690Z,6.20
2018-11-14T23:45:12.864Z,6.20
2018-11-14T23:47:41.719Z,6.30
2018-11-14T23:50:12.999Z,6.20
2018-11-14T23:52:42.719Z,6.20
2018-11-14T23:55:11.129Z,6.20
2018-11-14T23:57:39.929Z,6.20
